sensor_id;sensor_type;location;lat;lon;timestamp;temperature;humidity
9293;DHT22;69930;48.232;12.384;2024-03-02T00:02:05;8.20;99.90
9293;DHT22;69930;48.232;12.384;2024-03-02T00:04:33;8.20;99.90
9293;DHT22;69930;48.232;12.384;2024-03-02T00:07:00;8.20;99.90
9293;DHT22;69930;48.232;12.384;2024-03-02T00:09:27;8.30;99.90
9293;DHT22;69930;48.232;12.384;2024-03-02T00:11:54;8.30;99.90
9293;DHT22;69930;48.232;12.384;2024-03-02T00:14:22;8.40;99.90
9293;DHT22;69930;48.232;12.384;2024-03-02T00:16:51;8.30;99.90
9293;DHT22;69930;48.232;12.384;2024-03-02T00:19:19;8.40;99.90
9293;DHT22;69930;48.232;12.384;2024-03-02T00:21:46;8.40;99.90
9293;DHT22;69930;48.232;12.384;2024-03-02T00:24:21;8.40;99.90
9293;DHT22;69930;48.232;12.384;2024-03-02T00:26:48;8.40;99.90
9293;DHT22;69930;48.232;12.384;2024-03-02T00:29:16;8.30;99.90
9293;DHT22;69930;48.232;12.384;2024-03-02T00:31:44;8.30;99.90
9293;DHT22;69930;48.232;12.384;2024-03-02T00:34:14;8.30;99.90
9293;DHT22;69930;48.232;12.384;2024-03-02T00:36:42;8.30;99.90
9293;DHT22;69930;48.232;12.384;2024-03-02T00:39:12;8.30;99.90
9293;DHT22;69930;48.232;12.384;2024-03-02T00:41:41;8.20;99.90
9293;DHT22;69930;48.232;12.384;2024-03-02T00:44:10;8.20;99.90
9293;DHT22;69930;48.232;12.384;2024-03-02T00:46:40;8.20;99.90
9293;DHT22;69930;48.232;12.384;2024-03-02T00:49:17;8.20;99.90
9293;DHT22;69930;48.232;12.384;2024-03-02T00:51:46;8.10;99.90
9293;DHT22;69930;48.232;12.384;2024-03-02T00:54:15;8.10;99.90
9293;DHT22;69930;48.232;12.384;2024-03-02T00:56:42;8.10;99.90
9293;DHT22;69930;48.232;12.384;2024-03-02T00:59:10;8.10;99.90
9293;DHT22;69930;48.232;12.384;2024-03-02T01:01:37;8.10;99.90
9293;DHT22;69930;48.232;12.384;2024-03-02T01:04:05;8.00;99.90
9293;DHT22;69930;48.232;12.384;2024-03-02T01:06:34;8.00;99.90
9293;DHT22;69930;48.232;12.384;2024-03-02T01:09:02;8.00;99.90
9293;DHT22;69930;48.232;12.384;2024-03-02T01:11:29;8.00;99.90
9293;DHT22;69930;48.232;12.384;2024-03-02T01:13:58;8.00;99.90
9293;DHT22;69930;48.232;12.384;2024-03-02T01:16:25;7.90;99.90
9293;DHT22;69930;48.232;12.384;2024-03-02T01:18:52;7.90;99.90
9293;DHT22;69930;48.232;12.384;2024-03-02T01:21:20;7.90;99.90
9293;DHT22;69930;48.232;12.384;2024-03-02T01:23:48;7.80;99.90
9293;DHT22;69930;48.232;12.384;2024-03-02T01:26:15;7.80;99.90
9293;DHT22;69930;48.232;12.384;2024-03-02T01:28:42;7.70;99.90
9293;DHT22;69930;48.232;12.384;2024-03-02T01:31:10;7.60;99.90
9293;DHT22;69930;48.232;12.384;2024-03-02T01:33:37;7.50;99.90
9293;DHT22;69930;48.232;12.384;2024-03-02T01:36:04;7.50;99.90
9293;DHT22;69930;48.232;12.384;2024-03-02T01:38:34;7.50;99.90
9293;DHT22;69930;48.232;12.384;2024-03-02T01:41:02;7.60;99.90
9293;DHT22;69930;48.232;12.384;2024-03-02T01:43:30;7.60;99.90
9293;DHT22;69930;48.232;12.384;2024-03-02T01:45:57;7.60;99.90
9293;DHT22;69930;48.232;12.384;2024-03-02T01:48:25;7.60;99.90
9293;DHT22;69930;48.232;12.384;2024-03-02T01:50:52;7.60;99.90
9293;DHT22;69930;48.232;12.384;2024-03-02T01:53:21;7.60;99.90
9293;DHT22;69930;48.232;12.384;2024-03-02T01:55:49;7.60;99.90
9293;DHT22;69930;48.232;12.384;2024-03-02T01:58:18;7.50;99.90
9293;DHT22;69930;48.232;12.384;2024-03-02T02:00:45;7.50;99.90
9293;DHT22;69930;48.232;12.384;2024-03-02T02:03:13;7.40;99.90
9293;DHT22;69930;48.232;12.384;2024-03-02T02:05:42;7.30;99.90
9293;DHT22;69930;48.232;12.384;2024-03-02T02:08:09;7.20;99.90
9293;DHT22;69930;48.232;12.384;2024-03-02T02:10:36;7.20;99.90
9293;DHT22;69930;48.232;12.384;2024-03-02T02:13:04;7.10;99.90
9293;DHT22;69930;48.232;12.384;2024-03-02T03:27:44;6.60;99.90
9293;DHT22;69930;48.232;12.384;2024-03-02T03:30:13;6.50;99.90
9293;DHT22;69930;48.232;12.384;2024-03-02T03:32:40;6.40;99.90
9293;DHT22;69930;48.232;12.384;2024-03-02T03:35:07;6.40;99.90
9293;DHT22;69930;48.232;12.384;2024-03-02T03:37:34;6.40;99.90
9293;DHT22;69930;48.232;12.384;2024-03-02T03:40:02;6.40;99.90
9293;DHT22;69930;48.232;12.384;2024-03-02T03:42:33;6.40;99.90
9293;DHT22;69930;48.232;12.384;2024-03-02T03:45:03;6.40;99.90
9293;DHT22;69930;48.232;12.384;2024-03-02T03:47:31;6.40;99.90
9293;DHT22;69930;48.232;12.384;2024-03-02T03:49:58;6.30;99.90
9293;DHT22;69930;48.232;12.384;2024-03-02T03:52:25;6.30;99.90
9293;DHT22;69930;48.232;12.384;2024-03-02T03:54:53;6.30;99.90
9293;DHT22;69930;48.232;12.384;2024-03-02T03:57:21;6.30;99.90
9293;DHT22;69930;48.232;12.384;2024-03-02T03:59:49;6.30;99.90
9293;DHT22;69930;48.232;12.384;2024-03-02T04:02:18;6.40;99.90
9293;DHT22;69930;48.232;12.384;2024-03-02T04:04:46;6.40;99.90
9293;DHT22;69930;48.232;12.384;2024-03-02T04:07:13;6.40;99.90
9293;DHT22;69930;48.232;12.384;2024-03-02T04:09:40;6.40;99.90
9293;DHT22;69930;48.232;12.384;2024-03-02T04:12:07;6.40;99.90
9293;DHT22;69930;48.232;12.384;2024-03-02T04:14:34;6.40;99.90
9293;DHT22;69930;48.232;12.384;2024-03-02T04:17:03;6.40;99.90
9293;DHT22;69930;48.232;12.384;2024-03-02T04:19:32;6.40;99.90
9293;DHT22;69930;48.232;12.384;2024-03-02T04:22:00;6.40;99.90
9293;DHT22;69930;48.232;12.384;2024-03-02T04:24:28;6.40;99.90
9293;DHT22;69930;48.232;12.384;2024-03-02T04:26:55;6.40;99.90
9293;DHT22;69930;48.232;12.384;2024-03-02T04:29:22;6.40;99.90
9293;DHT22;69930;48.232;12.384;2024-03-02T04:31:50;6.40;99.90
9293;DHT22;69930;48.232;12.384;2024-03-02T04:34:17;6.40;99.90
9293;DHT22;69930;48.232;12.384;2024-03-02T04:36:45;6.30;99.90
9293;DHT22;69930;48.232;12.384;2024-03-02T04:39:12;6.20;99.90
9293;DHT22;69930;48.232;12.384;2024-03-02T04:41:39;6.10;99.90
9293;DHT22;69930;48.232;12.384;2024-03-02T04:44:06;6.00;99.90
9293;DHT22;69930;48.232;12.384;2024-03-02T04:46:34;6.00;99.90
9293;DHT22;69930;48.232;12.384;2024-03-02T04:49:01;6.10;99.90
9293;DHT22;69930;48.232;12.384;2024-03-02T04:51:28;6.10;99.90
9293;DHT22;69930;48.232;12.384;2024-03-02T04:53:57;6.20;99.90
9293;DHT22;69930;48.232;12.384;2024-03-02T04:56:24;6.30;99.90
9293;DHT22;69930;48.232;12.384;2024-03-02T04:59:10;6.30;99.90
9293;DHT22;69930;48.232;12.384;2024-03-02T05:01:37;6.30;99.90
9293;DHT22;69930;48.232;12.384;2024-03-02T05:04:05;6.30;99.90
9293;DHT22;69930;48.232;12.384;2024-03-02T05:06:32;6.30;99.90
9293;DHT22;69930;48.232;12.384;2024-03-02T05:09:01;6.30;99.90
9293;DHT22;69930;48.232;12.384;2024-03-02T05:11:28;6.40;99.90
9293;DHT22;69930;48.232;12.384;2024-03-02T05:13:58;6.30;99.90
9293;DHT22;69930;48.232;12.384;2024-03-02T05:16:24;6.30;99.90
9293;DHT22;69930;48.232;12.384;2024-03-02T05:18:51;6.20;99.90
9293;DHT22;69930;48.232;12.384;2024-03-02T05:21:18;6.20;99.90
9293;DHT22;69930;48.232;12.384;2024-03-02T05:23:45;6.30;99.90
9293;DHT22;69930;48.232;12.384;2024-03-02T05:26:16;6.30;99.90
9293;DHT22;69930;48.232;12.384;2024-03-02T05:28:43;6.30;99.90
9293;DHT22;69930;48.232;12.384;2024-03-02T05:31:11;6.20;99.90
9293;DHT22;69930;48.232;12.384;2024-03-02T05:56:11;6.30;99.90
9293;DHT22;69930;48.232;12.384;2024-03-02T05:58:40;6.30;99.90
9293;DHT22;69930;48.232;12.384;2024-03-02T06:01:19;6.30;99.90
9293;DHT22;69930;48.232;12.384;2024-03-02T06:03:46;6.20;99.90
9293;DHT22;69930;48.232;12.384;2024-03-02T06:06:13;6.20;99.90
9293;DHT22;69930;48.232;12.384;2024-03-02T06:08:40;6.10;99.90
9293;DHT22;69930;48.232;12.384;2024-03-02T06:11:07;6.10;99.90
9293;DHT22;69930;48.232;12.384;2024-03-02T06:13:37;6.10;99.90
9293;DHT22;69930;48.232;12.384;2024-03-02T06:16:05;6.00;99.90
9293;DHT22;69930;48.232;12.384;2024-03-02T06:18:34;6.00;99.90
9293;DHT22;69930;48.232;12.384;2024-03-02T06:21:01;6.00;99.90
9293;DHT22;69930;48.232;12.384;2024-03-02T06:23:28;6.00;99.90
9293;DHT22;69930;48.232;12.384;2024-03-02T06:25:56;6.00;99.90
9293;DHT22;69930;48.232;12.384;2024-03-02T06:28:23;6.00;99.90
9293;DHT22;69930;48.232;12.384;2024-03-02T06:30:50;6.00;99.90
9293;DHT22;69930;48.232;12.384;2024-03-02T06:33:17;6.00;99.90
9293;DHT22;69930;48.232;12.384;2024-03-02T06:35:45;6.10;99.90
9293;DHT22;69930;48.232;12.384;2024-03-02T06:38:12;6.10;99.90
9293;DHT22;69930;48.232;12.384;2024-03-02T06:40:39;6.10;99.90
9293;DHT22;69930;48.232;12.384;2024-03-02T07:04:23;6.00;99.90
9293;DHT22;69930;48.232;12.384;2024-03-02T07:06:50;6.00;99.90
9293;DHT22;69930;48.232;12.384;2024-03-02T07:09:18;6.00;99.90
9293;DHT22;69930;48.232;12.384;2024-03-02T08:05:29;6.20;99.90
9293;DHT22;69930;48.232;12.384;2024-03-02T08:08:04;6.30;99.90
9293;DHT22;69930;48.232;12.384;2024-03-02T08:10:57;6.20;99.90
9293;DHT22;69930;48.232;12.384;2024-03-02T08:38:50;6.40;99.90
9293;DHT22;69930;48.232;12.384;2024-03-02T08:41:20;6.50;99.90
9293;DHT22;69930;48.232;12.384;2024-03-02T08:43:51;6.50;99.90
9293;DHT22;69930;48.232;12.384;2024-03-02T08:46:20;6.60;99.90
9293;DHT22;69930;48.232;12.384;2024-03-02T09:06:41;6.70;99.90
9293;DHT22;69930;48.232;12.384;2024-03-02T09:09:10;6.80;99.90
9293;DHT22;69930;48.232;12.384;2024-03-02T09:11:51;6.80;99.90
9293;DHT22;69930;48.232;12.384;2024-03-02T09:14:33;6.90;99.90
9293;DHT22;69930;48.232;12.384;2024-03-02T12:20:04;10.80;99.90
9293;DHT22;69930;48.232;12.384;2024-03-02T12:22:45;10.90;99.90
9293;DHT22;69930;48.232;12.384;2024-03-02T12:25:25;11.10;99.90
9293;DHT22;69930;48.232;12.384;2024-03-02T12:27:55;11.10;99.90
9293;DHT22;69930;48.232;12.384;2024-03-02T12:30:29;11.10;99.90
9293;DHT22;69930;48.232;12.384;2024-03-02T12:33:11;11.20;99.90
9293;DHT22;69930;48.232;12.384;2024-03-02T12:38:54;11.40;99.90
9293;DHT22;69930;48.232;12.384;2024-03-02T12:41:36;11.50;99.90
9293;DHT22;69930;48.232;12.384;2024-03-02T12:44:17;11.60;99.90
9293;DHT22;69930;48.232;12.384;2024-03-02T12:46:52;11.80;99.90
9293;DHT22;69930;48.232;12.384;2024-03-02T12:49:23;11.90;99.90
9293;DHT22;69930;48.232;12.384;2024-03-02T12:51:50;11.90;99.90
9293;DHT22;69930;48.232;12.384;2024-03-02T12:54:22;12.00;99.90
9293;DHT22;69930;48.232;12.384;2024-03-02T12:56:51;12.10;99.90
9293;DHT22;69930;48.232;12.384;2024-03-02T12:59:20;12.20;99.90
9293;DHT22;69930;48.232;12.384;2024-03-02T13:01:51;12.20;99.90
9293;DHT22;69930;48.232;12.384;2024-03-02T13:04:22;12.30;99.90
9293;DHT22;69930;48.232;12.384;2024-03-02T13:06:50;12.30;99.90
9293;DHT22;69930;48.232;12.384;2024-03-02T13:09:22;12.40;99.90
9293;DHT22;69930;48.232;12.384;2024-03-02T13:11:50;12.60;99.90
9293;DHT22;69930;48.232;12.384;2024-03-02T13:14:17;12.70;99.90
9293;DHT22;69930;48.232;12.384;2024-03-02T13:16:44;12.70;99.90
9293;DHT22;69930;48.232;12.384;2024-03-02T13:19:12;12.80;99.90
9293;DHT22;69930;48.232;12.384;2024-03-02T13:21:39;12.80;99.90
9293;DHT22;69930;48.232;12.384;2024-03-02T13:24:07;12.90;99.90
9293;DHT22;69930;48.232;12.384;2024-03-02T13:26:36;12.90;99.90
9293;DHT22;69930;48.232;12.384;2024-03-02T13:29:03;12.80;99.90
9293;DHT22;69930;48.232;12.384;2024-03-02T13:31:30;12.70;99.90
9293;DHT22;69930;48.232;12.384;2024-03-02T13:33:58;12.70;99.90
9293;DHT22;69930;48.232;12.384;2024-03-02T13:36:25;12.70;99.90
9293;DHT22;69930;48.232;12.384;2024-03-02T13:38:52;12.70;99.90
9293;DHT22;69930;48.232;12.384;2024-03-02T13:41:19;12.70;99.90
9293;DHT22;69930;48.232;12.384;2024-03-02T13:43:49;12.70;99.90
9293;DHT22;69930;48.232;12.384;2024-03-02T13:46:16;12.80;99.90
9293;DHT22;69930;48.232;12.384;2024-03-02T13:48:43;12.80;99.90
9293;DHT22;69930;48.232;12.384;2024-03-02T13:51:10;12.80;99.90
9293;DHT22;69930;48.232;12.384;2024-03-02T13:53:37;12.80;99.90
9293;DHT22;69930;48.232;12.384;2024-03-02T15:13:53;13.50;99.90
9293;DHT22;69930;48.232;12.384;2024-03-02T15:16:21;13.60;99.90
9293;DHT22;69930;48.232;12.384;2024-03-02T15:18:48;13.60;99.90
9293;DHT22;69930;48.232;12.384;2024-03-02T15:21:15;13.60;99.90
9293;DHT22;69930;48.232;12.384;2024-03-02T15:23:42;13.70;99.90
9293;DHT22;69930;48.232;12.384;2024-03-02T15:26:09;13.60;99.90
9293;DHT22;69930;48.232;12.384;2024-03-02T15:28:45;13.50;99.90
9293;DHT22;69930;48.232;12.384;2024-03-02T15:31:32;13.40;99.90
9293;DHT22;69930;48.232;12.384;2024-03-02T15:34:03;13.30;99.90
9293;DHT22;69930;48.232;12.384;2024-03-02T15:36:30;13.20;99.90
9293;DHT22;69930;48.232;12.384;2024-03-02T15:39:05;13.20;99.90
9293;DHT22;69930;48.232;12.384;2024-03-02T15:41:34;13.10;99.90
9293;DHT22;69930;48.232;12.384;2024-03-02T15:52:09;13.10;99.90
9293;DHT22;69930;48.232;12.384;2024-03-02T15:54:36;13.10;99.90
9293;DHT22;69930;48.232;12.384;2024-03-02T15:57:04;13.10;99.90
9293;DHT22;69930;48.232;12.384;2024-03-02T15:59:31;13.10;99.90
9293;DHT22;69930;48.232;12.384;2024-03-02T16:01:59;13.10;99.90
9293;DHT22;69930;48.232;12.384;2024-03-02T16:04:27;13.10;99.90
9293;DHT22;69930;48.232;12.384;2024-03-02T16:06:54;13.10;99.90
9293;DHT22;69930;48.232;12.384;2024-03-02T16:12:18;13.00;99.90
9293;DHT22;69930;48.232;12.384;2024-03-02T16:14:47;13.00;99.90
9293;DHT22;69930;48.232;12.384;2024-03-02T16:20:12;12.80;99.90
9293;DHT22;69930;48.232;12.384;2024-03-02T16:22:47;12.80;99.90
9293;DHT22;69930;48.232;12.384;2024-03-02T16:25:14;12.70;99.90
9293;DHT22;69930;48.232;12.384;2024-03-02T16:27:43;12.70;99.90
9293;DHT22;69930;48.232;12.384;2024-03-02T16:30:10;12.70;99.90
9293;DHT22;69930;48.232;12.384;2024-03-02T16:53:14;12.00;99.90
9293;DHT22;69930;48.232;12.384;2024-03-02T16:55:43;12.00;99.90
9293;DHT22;69930;48.232;12.384;2024-03-02T16:58:10;11.90;99.90
9293;DHT22;69930;48.232;12.384;2024-03-02T17:00:37;11.70;99.90
9293;DHT22;69930;48.232;12.384;2024-03-02T17:03:04;11.60;99.90
9293;DHT22;69930;48.232;12.384;2024-03-02T17:05:32;11.60;99.90
9293;DHT22;69930;48.232;12.384;2024-03-02T17:08:00;11.40;99.90
9293;DHT22;69930;48.232;12.384;2024-03-02T17:10:31;11.40;99.90
9293;DHT22;69930;48.232;12.384;2024-03-02T17:12:59;11.20;99.90
9293;DHT22;69930;48.232;12.384;2024-03-02T17:15:27;11.10;99.90
9293;DHT22;69930;48.232;12.384;2024-03-02T17:17:54;11.00;99.90
9293;DHT22;69930;48.232;12.384;2024-03-02T17:20:21;10.80;99.90
9293;DHT22;69930;48.232;12.384;2024-03-02T17:22:48;10.60;99.90
9293;DHT22;69930;48.232;12.384;2024-03-02T17:25:15;10.40;99.90
9293;DHT22;69930;48.232;12.384;2024-03-02T17:30:40;10.20;99.90
9293;DHT22;69930;48.232;12.384;2024-03-02T17:41:34;9.60;99.90
9293;DHT22;69930;48.232;12.384;2024-03-02T17:44:16;9.50;99.90
9293;DHT22;69930;48.232;12.384;2024-03-02T19:49:15;9.20;99.90
9293;DHT22;69930;48.232;12.384;2024-03-02T19:51:42;9.20;99.90
9293;DHT22;69930;48.232;12.384;2024-03-02T19:54:11;9.10;99.90
9293;DHT22;69930;48.232;12.384;2024-03-02T19:56:39;9.10;99.90
9293;DHT22;69930;48.232;12.384;2024-03-02T19:59:06;9.10;99.90
9293;DHT22;69930;48.232;12.384;2024-03-02T20:01:36;9.10;99.90
9293;DHT22;69930;48.232;12.384;2024-03-02T20:04:05;9.00;99.90
9293;DHT22;69930;48.232;12.384;2024-03-02T20:06:34;9.00;99.90
9293;DHT22;69930;48.232;12.384;2024-03-02T20:09:01;9.00;99.90
9293;DHT22;69930;48.232;12.384;2024-03-02T20:11:30;9.00;99.90
9293;DHT22;69930;48.232;12.384;2024-03-02T20:13:57;8.90;99.90
9293;DHT22;69930;48.232;12.384;2024-03-02T20:16:24;8.90;99.90
9293;DHT22;69930;48.232;12.384;2024-03-02T20:18:52;8.80;99.90
9293;DHT22;69930;48.232;12.384;2024-03-02T20:21:19;8.80;99.90
9293;DHT22;69930;48.232;12.384;2024-03-02T20:23:47;8.80;99.90
9293;DHT22;69930;48.232;12.384;2024-03-02T20:26:14;8.70;99.90
9293;DHT22;69930;48.232;12.384;2024-03-02T20:28:43;8.70;99.90
9293;DHT22;69930;48.232;12.384;2024-03-02T20:31:10;8.70;99.90
9293;DHT22;69930;48.232;12.384;2024-03-02T20:33:39;8.70;99.90
9293;DHT22;69930;48.232;12.384;2024-03-02T20:36:11;8.70;99.90
9293;DHT22;69930;48.232;12.384;2024-03-02T20:38:39;8.60;99.90
9293;DHT22;69930;48.232;12.384;2024-03-02T20:41:15;8.60;99.90
9293;DHT22;69930;48.232;12.384;2024-03-02T20:43:42;8.60;99.90
9293;DHT22;69930;48.232;12.384;2024-03-02T20:46:09;8.60;99.90
9293;DHT22;69930;48.232;12.384;2024-03-02T20:48:36;8.50;99.90
9293;DHT22;69930;48.232;12.384;2024-03-02T20:51:05;8.50;99.90
9293;DHT22;69930;48.232;12.384;2024-03-02T20:53:33;8.50;99.90
9293;DHT22;69930;48.232;12.384;2024-03-02T21:30:08;8.30;99.90
9293;DHT22;69930;48.232;12.384;2024-03-02T21:32:51;8.30;99.90
9293;DHT22;69930;48.232;12.384;2024-03-02T21:35:32;8.30;99.90
9293;DHT22;69930;48.232;12.384;2024-03-02T21:38:13;8.20;99.90
9293;DHT22;69930;48.232;12.384;2024-03-02T21:40:54;8.20;99.90
9293;DHT22;69930;48.232;12.384;2024-03-02T21:43:35;8.20;99.90
